createdAt,value
2022-11-29T00:02:48.057Z,63.90
2022-11-29T00:06:54.788Z,68.15
2022-11-29T00:11:36.021Z,64.10
2022-11-29T00:15:42.846Z,58.70
2022-11-29T00:19:50.560Z,60.63
2022-11-29T00:23:57.304Z,47.28
2022-11-29T00:28:04.078Z,47.38
2022-11-29T00:32:10.786Z,58.17
2022-11-29T00:36:17.628Z,55.45
2022-11-29T00:40:24.379Z,50.95
2022-11-29T00:44:31.170Z,50.30
2022-11-29T00:48:38.118Z,54.20
2022-11-29T00:52:44.804Z,58.05
2022-11-29T00:56:51.506Z,55.47
2022-11-29T01:00:58.348Z,59.08
2022-11-29T01:05:05.382Z,56.90
2022-11-29T01:09:12.076Z,68.10
2022-11-29T01:13:18.751Z,68.03
2022-11-29T01:17:25.427Z,62.05
2022-11-29T01:21:33.064Z,58.38
2022-11-29T01:25:39.743Z,60.28
2022-11-29T01:29:46.452Z,51.38
2022-11-29T01:33:54.906Z,57.92
2022-11-29T01:38:01.571Z,58.33
2022-11-29T01:42:11.570Z,47.92
2022-11-29T01:46:18.300Z,45.13
2022-11-29T01:50:25.218Z,63.05
2022-11-29T01:54:35.199Z,42.03
2022-11-29T01:58:45.472Z,53.70
2022-11-29T02:03:13.995Z,53.85
2022-11-29T02:07:20.709Z,59.75
2022-11-29T02:11:30.115Z,67.18
2022-11-29T02:15:53.070Z,52.25
2022-11-29T02:20:25.411Z,58.55
2022-11-29T02:25:04.330Z,60.88
2022-11-29T02:29:10.949Z,50.15
2022-11-29T02:33:35.156Z,50.05
2022-11-29T02:37:58.260Z,61.72
2022-11-29T02:42:26.084Z,60.05
2022-11-29T02:47:04.028Z,63.25
2022-11-29T02:51:37.993Z,64.90
2022-11-29T02:55:51.692Z,53.47
2022-11-29T03:00:09.110Z,59.67
2022-11-29T03:04:27.637Z,54.88
2022-11-29T03:08:37.108Z,64.80
2022-11-29T03:12:47.820Z,67.22
2022-11-29T03:17:13.831Z,65.18
2022-11-29T03:21:37.215Z,73.40
2022-11-29T03:25:56.671Z,76.75
2022-11-29T03:30:07.967Z,59.25
2022-11-29T03:34:32.763Z,66.13
2022-11-29T03:38:43.498Z,72.85
2022-11-29T03:43:00.542Z,69.50
2022-11-29T03:47:12.614Z,71.75
2022-11-29T03:51:26.522Z,68.05
2022-11-29T03:55:46.952Z,65.30
2022-11-29T04:00:05.071Z,63.47
2022-11-29T04:04:36.938Z,70.60
2022-11-29T04:08:55.942Z,64.00
2022-11-29T04:13:40.133Z,65.57
2022-11-29T04:18:34.749Z,58.60
2022-11-29T04:23:10.318Z,60.60
2022-11-29T04:27:53.984Z,65.93
2022-11-29T04:32:39.591Z,63.00
2022-11-29T04:37:28.587Z,59.90
2022-11-29T04:42:02.401Z,74.82
2022-11-29T04:46:46.826Z,67.18
2022-11-29T04:51:00.958Z,68.03
2022-11-29T04:55:31.016Z,70.30
2022-11-29T04:59:46.873Z,73.93
2022-11-29T05:04:08.677Z,61.47
2022-11-29T05:08:43.436Z,75.53
2022-11-29T05:13:24.659Z,74.85
2022-11-29T05:17:32.079Z,81.72
2022-11-29T05:22:24.897Z,103.28
2022-11-29T05:27:00.603Z,176.90
2022-11-29T05:31:16.591Z,115.53
2022-11-29T05:35:50.792Z,200.07
2022-11-29T05:40:20.525Z,107.35
2022-11-29T05:44:47.604Z,107.53
2022-11-29T05:49:16.096Z,103.82
2022-11-29T05:53:37.075Z,80.15
2022-11-29T05:58:03.945Z,100.95
2022-11-29T06:02:29.316Z,114.10
2022-11-29T06:06:46.884Z,41.40
2022-11-29T06:11:16.554Z,69.13
2022-11-29T06:15:36.620Z,63.28
2022-11-29T06:19:55.368Z,186.40
2022-11-29T06:24:25.913Z,82.25
2022-11-29T06:28:42.776Z,103.18
2022-11-29T06:33:18.844Z,70.47
2022-11-29T06:37:40.288Z,85.45
2022-11-29T06:41:47.880Z,94.72
2022-11-29T06:46:07.534Z,151.95
2022-11-29T06:50:33.541Z,98.72
2022-11-29T06:54:50.261Z,116.70
2022-11-29T06:59:33.004Z,119.57
2022-11-29T07:04:07.347Z,184.90
2022-11-29T07:08:23.092Z,97.18
2022-11-29T07:12:30.366Z,83.40
2022-11-29T07:17:01.836Z,57.60
2022-11-29T07:21:16.955Z,66.85
2022-11-29T07:26:02.056Z,133.40
2022-11-29T07:30:18.735Z,60.47
2022-11-29T07:35:07.237Z,92.88
2022-11-29T07:39:24.209Z,91.47
2022-11-29T07:44:04.331Z,52.25
2022-11-29T07:48:12.260Z,81.97
2022-11-29T07:52:19.033Z,77.38
2022-11-29T07:56:25.707Z,70.95
2022-11-29T08:00:32.424Z,50.60
2022-11-29T08:04:44.414Z,44.55
2022-11-29T08:08:51.390Z,59.78
2022-11-29T08:12:58.207Z,42.13
2022-11-29T08:17:05.143Z,28.38
2022-11-29T08:21:12.056Z,39.60
2022-11-29T08:25:18.781Z,35.65
2022-11-29T08:29:25.580Z,32.85
2022-11-29T08:33:34.210Z,35.78
2022-11-29T08:37:40.999Z,34.83
2022-11-29T08:41:49.667Z,37.35
2022-11-29T08:45:57.370Z,30.60
2022-11-29T08:50:10.130Z,24.88
2022-11-29T08:54:16.781Z,31.27
2022-11-29T08:58:24.712Z,30.95
2022-11-29T09:02:31.465Z,29.60
2022-11-29T09:06:41.116Z,23.20
2022-11-29T09:10:48.331Z,24.30
2022-11-29T09:14:55.033Z,21.70
2022-11-29T09:19:02.238Z,20.42
2022-11-29T09:23:08.929Z,26.55
2022-11-29T09:27:15.619Z,22.70
2022-11-29T09:31:22.700Z,29.10
2022-11-29T09:35:29.842Z,28.45
2022-11-29T09:39:36.495Z,22.58
2022-11-29T09:44:11.223Z,29.17
2022-11-29T09:48:40.502Z,21.80
2022-11-29T09:53:08.389Z,20.48
2022-11-29T09:57:17.460Z,24.85
2022-11-29T10:01:29.946Z,26.52
2022-11-29T10:09:57.072Z,25.02
2022-11-29T10:14:16.320Z,32.25
2022-11-29T10:18:28.894Z,29.52
2022-11-29T10:22:49.614Z,23.90
2022-11-29T10:26:56.340Z,29.63
2022-11-29T10:31:26.862Z,24.35
2022-11-29T10:35:33.783Z,21.27
2022-11-29T10:39:44.603Z,32.65
2022-11-29T10:43:52.005Z,29.70
2022-11-29T10:48:03.795Z,25.35
2022-11-29T10:52:19.818Z,22.83
2022-11-29T10:56:31.095Z,23.80
2022-11-29T11:01:10.119Z,24.15
2022-11-29T11:05:26.111Z,21.58
2022-11-29T11:09:37.954Z,22.75
2022-11-29T11:14:01.366Z,27.60
2022-11-29T11:18:20.634Z,29.40
2022-11-29T11:22:29.508Z,29.17
2022-11-29T11:26:44.546Z,25.27
2022-11-29T11:31:08.318Z,32.33
2022-11-29T11:35:24.330Z,30.83
2022-11-29T11:39:31.380Z,25.02
2022-11-29T11:43:38.999Z,31.50
2022-11-29T11:47:53.145Z,32.97
2022-11-29T11:52:01.181Z,28.58
2022-11-29T11:56:13.423Z,33.63
2022-11-29T12:01:06.689Z,34.40
2022-11-29T12:05:20.021Z,24.73
2022-11-29T12:09:35.138Z,39.88
2022-11-29T12:13:47.613Z,25.00
2022-11-29T12:22:07.316Z,31.20
2022-11-29T12:26:48.898Z,30.65
2022-11-29T12:31:13.215Z,28.50
2022-11-29T12:35:45.316Z,35.80
2022-11-29T12:39:57.334Z,22.65
2022-11-29T12:44:25.219Z,25.58
2022-11-29T12:49:00.359Z,24.40
2022-11-29T12:53:27.671Z,29.17
2022-11-29T12:57:40.570Z,29.65
2022-11-29T13:01:51.223Z,27.00
2022-11-29T13:06:07.780Z,22.10
2022-11-29T13:10:27.303Z,28.10
2022-11-29T13:15:00.887Z,27.23
2022-11-29T13:19:12.462Z,22.10
2022-11-29T13:23:46.092Z,30.42
2022-11-29T13:28:24.908Z,24.15
2022-11-29T13:32:47.856Z,18.73
2022-11-29T13:37:15.361Z,26.20
2022-11-29T13:41:41.102Z,25.40
2022-11-29T13:46:13.573Z,21.80
2022-11-29T13:50:42.027Z,31.38
2022-11-29T13:55:30.587Z,20.35
2022-11-29T13:59:45.724Z,26.30
2022-11-29T14:04:07.497Z,24.70
2022-11-29T14:09:02.068Z,24.33
2022-11-29T14:13:01.902Z,24.35
2022-11-29T14:17:31.598Z,25.83
2022-11-29T14:22:01.800Z,21.25
2022-11-29T14:26:08.580Z,23.67
2022-11-29T14:30:50.488Z,20.17
2022-11-29T14:35:12.677Z,25.53
2022-11-29T14:39:46.912Z,21.15
2022-11-29T14:44:24.194Z,21.17
2022-11-29T14:48:32.867Z,26.25
2022-11-29T14:52:50.201Z,28.60
2022-11-29T14:56:56.959Z,31.60
2022-11-29T15:01:10.349Z,22.85
2022-11-29T15:05:28.013Z,22.33
2022-11-29T15:09:36.569Z,20.42
2022-11-29T15:13:59.413Z,30.15
2022-11-29T15:18:34.479Z,21.85
2022-11-29T15:22:58.000Z,30.90
2022-11-29T15:27:04.849Z,23.70
2022-11-29T15:31:15.113Z,24.13
2022-11-29T15:35:21.964Z,24.45
2022-11-29T15:39:36.525Z,23.70
2022-11-29T15:43:45.501Z,21.52
2022-11-29T15:47:53.313Z,24.30
2022-11-29T15:52:06.073Z,22.90
2022-11-29T15:56:24.732Z,26.90
2022-11-29T16:00:33.750Z,22.80
2022-11-29T16:04:46.527Z,28.50
2022-11-29T16:08:55.102Z,22.90
2022-11-29T16:13:26.231Z,27.88
2022-11-29T16:17:35.278Z,32.53
2022-11-29T16:21:43.662Z,23.15
2022-11-29T16:25:59.998Z,25.30
2022-11-29T16:30:07.877Z,33.78
2022-11-29T16:34:32.953Z,31.25
2022-11-29T16:38:48.693Z,31.13
2022-11-29T16:43:20.581Z,29.23
2022-11-29T16:47:30.045Z,28.77
2022-11-29T16:51:45.848Z,36.55
2022-11-29T16:55:52.583Z,28.90
2022-11-29T16:59:59.334Z,31.95
2022-11-29T17:04:08.839Z,29.83
2022-11-29T17:08:15.889Z,28.42
2022-11-29T17:12:22.666Z,36.00
2022-11-29T17:16:29.577Z,35.60
2022-11-29T17:20:36.367Z,34.30
2022-11-29T17:24:47.925Z,32.63
2022-11-29T17:28:55.486Z,30.92
2022-11-29T17:33:02.230Z,27.90
2022-11-29T17:37:09.052Z,24.92
2022-11-29T17:41:18.439Z,32.88
2022-11-29T17:45:25.495Z,35.88
2022-11-29T17:49:32.748Z,28.55
2022-11-29T17:53:39.528Z,26.92
2022-11-29T17:57:46.276Z,23.63
2022-11-29T18:01:53.116Z,26.38
2022-11-29T18:06:01.012Z,22.23
2022-11-29T18:10:08.718Z,23.70
2022-11-29T18:14:18.376Z,24.67
2022-11-29T18:18:25.760Z,19.70
2022-11-29T18:22:32.747Z,16.63
2022-11-29T18:26:40.257Z,19.35
2022-11-29T18:30:47.043Z,22.88
2022-11-29T18:34:54.664Z,22.88
2022-11-29T18:39:08.641Z,24.73
2022-11-29T18:43:17.339Z,21.50
2022-11-29T18:47:24.079Z,25.10
2022-11-29T18:51:31.481Z,27.92
2022-11-29T18:55:39.552Z,30.27
2022-11-29T18:59:46.284Z,27.00
2022-11-29T19:03:55.058Z,29.85
2022-11-29T19:08:01.862Z,29.60
2022-11-29T19:12:10.264Z,30.88
2022-11-29T19:16:18.772Z,35.05
2022-11-29T19:20:25.578Z,35.03
2022-11-29T19:24:32.366Z,36.05
2022-11-29T19:28:41.546Z,34.60
2022-11-29T19:32:48.257Z,46.50
2022-11-29T19:36:55.045Z,38.63
2022-11-29T19:41:15.749Z,38.85
2022-11-29T19:45:22.435Z,32.58
2022-11-29T19:49:29.144Z,43.80
2022-11-29T19:53:36.327Z,45.88
2022-11-29T19:57:43.087Z,33.25
2022-11-29T20:01:49.936Z,30.75
2022-11-29T20:05:56.795Z,26.23
2022-11-29T20:10:04.304Z,29.90
2022-11-29T20:14:12.173Z,23.83
2022-11-29T20:18:18.887Z,18.40
2022-11-29T20:22:25.559Z,20.63
2022-11-29T20:26:33.953Z,16.92
2022-11-29T20:30:40.752Z,20.80
2022-11-29T20:34:48.131Z,16.50
2022-11-29T20:38:58.229Z,16.80
2022-11-29T20:43:22.388Z,17.17
2022-11-29T20:47:58.030Z,14.63
2022-11-29T20:52:07.256Z,13.68
2022-11-29T20:56:14.087Z,17.65
2022-11-29T21:00:21.614Z,15.55
2022-11-29T21:04:28.329Z,13.55
2022-11-29T21:08:35.357Z,13.25
2022-11-29T21:12:45.619Z,17.08
2022-11-29T21:16:52.681Z,15.40
2022-11-29T21:21:02.457Z,16.40
2022-11-29T21:25:30.567Z,17.48
2022-11-29T21:29:37.772Z,20.73
2022-11-29T21:33:44.937Z,18.63
2022-11-29T21:37:54.489Z,25.67
2022-11-29T21:42:01.972Z,17.90
2022-11-29T21:46:08.715Z,18.33
2022-11-29T21:50:15.581Z,19.15
2022-11-29T21:54:22.385Z,18.63
2022-11-29T21:58:30.467Z,19.08
2022-11-29T22:02:37.269Z,21.63
2022-11-29T22:06:44.067Z,23.75
2022-11-29T22:11:00.490Z,22.85
2022-11-29T22:15:08.303Z,22.73
2022-11-29T22:19:21.224Z,19.20
2022-11-29T22:23:28.082Z,22.15
2022-11-29T22:27:34.781Z,25.00
2022-11-29T22:31:43.310Z,21.52
2022-11-29T22:35:50.088Z,21.42
2022-11-29T22:39:57.556Z,22.23
2022-11-29T22:44:04.707Z,23.60
2022-11-29T22:48:11.464Z,24.35
2022-11-29T22:52:18.228Z,22.92
2022-11-29T22:56:28.634Z,22.00
2022-11-29T23:00:42.162Z,21.45
2022-11-29T23:04:49.046Z,22.27
2022-11-29T23:08:58.470Z,20.58
2022-11-29T23:13:05.220Z,21.65
2022-11-29T23:17:11.941Z,22.40
2022-11-29T23:21:24.810Z,19.70
2022-11-29T23:25:31.537Z,21.48
2022-11-29T23:29:38.203Z,26.27
2022-11-29T23:33:45.001Z,25.15
2022-11-29T23:37:51.745Z,19.65
2022-11-29T23:41:58.426Z,24.23
2022-11-29T23:46:07.284Z,23.75
2022-11-29T23:50:14.207Z,22.63
2022-11-29T23:54:20.983Z,23.45
2022-11-29T23:58:29.374Z,19.85
